createdAt,value
2022-12-08T00:04:22.962Z,90.20
2022-12-08T00:09:39.353Z,90.14
2022-12-08T00:14:44.983Z,89.62
2022-12-08T00:19:47.834Z,89.84
2022-12-08T00:24:50.770Z,90.24
2022-12-08T00:29:56.080Z,90.47
2022-12-08T00:34:58.830Z,90.24
2022-12-08T00:40:01.829Z,90.49
2022-12-08T00:45:08.259Z,90.37
2022-12-08T00:50:11.670Z,90.19
2022-12-08T00:55:17.289Z,90.28
2022-12-08T01:00:20.637Z,89.94
2022-12-08T01:05:23.422Z,89.22
2022-12-08T01:10:26.645Z,88.98
2022-12-08T01:15:29.461Z,89.08
2022-12-08T01:20:32.266Z,89.07
2022-12-08T01:25:35.616Z,88.86
2022-12-08T01:30:39.468Z,88.93
2022-12-08T01:35:42.892Z,88.98
2022-12-08T01:40:46.180Z,88.61
2022-12-08T01:45:49.330Z,88.89
2022-12-08T01:50:54.690Z,89.02
2022-12-08T01:56:01.793Z,89.08
2022-12-08T02:01:04.750Z,89.09
2022-12-08T02:06:08.430Z,89.32
2022-12-08T02:11:11.760Z,89.00
2022-12-08T02:16:36.031Z,88.80
2022-12-08T02:22:23.004Z,88.74
2022-12-08T02:28:29.236Z,88.79
2022-12-08T02:34:15.661Z,88.39
2022-12-08T02:39:58.339Z,88.38
2022-12-08T02:45:04.677Z,88.45
2022-12-08T02:50:08.344Z,88.25
2022-12-08T02:55:22.493Z,88.23
2022-12-08T03:00:28.166Z,88.15
2022-12-08T03:05:38.187Z,88.13
2022-12-08T03:10:45.153Z,88.03
2022-12-08T03:15:49.987Z,87.89
2022-12-08T03:20:53.116Z,87.85
2022-12-08T03:26:26.052Z,87.73
2022-12-08T03:31:31.040Z,87.74
2022-12-08T03:36:34.955Z,87.81
2022-12-08T03:41:37.749Z,87.89
2022-12-08T03:46:40.555Z,87.56
2022-12-08T03:51:43.592Z,87.46
2022-12-08T03:56:46.431Z,87.55
2022-12-08T04:01:50.410Z,87.33
2022-12-08T04:06:53.291Z,87.72
2022-12-08T04:11:56.137Z,87.72
2022-12-08T04:16:58.917Z,87.90
2022-12-08T04:22:01.714Z,87.81
2022-12-08T04:27:04.569Z,88.14
2022-12-08T04:32:07.445Z,87.93
2022-12-08T04:37:10.344Z,88.38
2022-12-08T04:42:13.176Z,88.59
2022-12-08T04:47:16.031Z,88.53
2022-12-08T04:52:18.860Z,88.63
2022-12-08T04:57:21.727Z,88.58
2022-12-08T05:02:24.612Z,88.00
2022-12-08T05:07:27.583Z,87.94
2022-12-08T05:12:31.871Z,87.42
2022-12-08T05:17:34.649Z,86.87
2022-12-08T05:22:37.539Z,87.70
2022-12-08T05:27:40.427Z,87.54
2022-12-08T05:32:43.468Z,87.58
2022-12-08T05:37:47.577Z,87.13
2022-12-08T05:42:50.339Z,87.40
2022-12-08T05:47:53.865Z,87.56
2022-12-08T05:52:56.941Z,87.59
2022-12-08T05:58:04.540Z,87.36
2022-12-08T06:03:14.574Z,87.32
2022-12-08T06:08:17.887Z,87.41
2022-12-08T06:13:20.716Z,87.46
2022-12-08T06:18:28.365Z,87.57
2022-12-08T06:23:36.224Z,87.81
2022-12-08T06:28:40.167Z,87.98
2022-12-08T06:33:43.296Z,88.11
2022-12-08T06:38:47.533Z,88.11
2022-12-08T06:43:51.075Z,87.87
2022-12-08T06:48:53.923Z,87.76
2022-12-08T06:53:58.247Z,87.88
2022-12-08T06:59:01.437Z,87.76
2022-12-08T07:04:05.398Z,87.68
2022-12-08T07:09:08.539Z,87.68
2022-12-08T07:14:12.069Z,87.55
2022-12-08T07:19:15.179Z,87.76
2022-12-08T07:24:17.944Z,87.91
2022-12-08T07:29:26.088Z,88.12
2022-12-08T07:34:29.332Z,87.95
2022-12-08T07:39:32.288Z,87.85
2022-12-08T07:44:35.068Z,87.82
2022-12-08T07:49:38.025Z,88.05
2022-12-08T07:54:40.949Z,88.03
2022-12-08T07:59:43.757Z,88.25
2022-12-08T08:04:50.646Z,88.23
2022-12-08T08:09:53.547Z,88.26
2022-12-08T08:14:56.387Z,88.26
2022-12-08T08:19:59.827Z,88.50
2022-12-08T08:25:04.162Z,88.28
2022-12-08T08:30:09.295Z,88.30
2022-12-08T08:35:12.242Z,88.20
2022-12-08T08:40:15.196Z,88.27
2022-12-08T08:45:18.056Z,88.15
2022-12-08T08:50:22.444Z,88.37
2022-12-08T08:55:25.305Z,88.39
2022-12-08T09:00:28.451Z,88.40
2022-12-08T09:05:31.283Z,88.27
2022-12-08T09:10:34.145Z,87.98
2022-12-08T09:15:37.382Z,88.02
2022-12-08T09:20:40.181Z,87.96
2022-12-08T09:25:45.685Z,87.72
2022-12-08T09:30:48.851Z,87.74
2022-12-08T09:35:51.688Z,87.94
2022-12-08T09:40:54.825Z,87.41
2022-12-08T09:45:57.684Z,87.71
2022-12-08T09:51:01.046Z,87.62
2022-12-08T09:56:18.918Z,87.20
2022-12-08T10:01:33.991Z,87.06
2022-12-08T10:06:48.117Z,87.10
2022-12-08T10:12:16.759Z,86.92
2022-12-08T10:17:30.773Z,86.88
2022-12-08T10:22:37.583Z,87.20
2022-12-08T10:27:42.853Z,86.94
2022-12-08T10:32:48.074Z,86.92
2022-12-08T10:38:02.177Z,86.63
2022-12-08T10:43:07.060Z,86.45
2022-12-08T10:48:27.417Z,86.53
2022-12-08T10:53:33.875Z,86.68
2022-12-08T10:58:41.076Z,87.01
2022-12-08T11:04:02.098Z,86.57
2022-12-08T11:09:20.073Z,86.20
2022-12-08T11:14:29.608Z,86.36
2022-12-08T11:19:32.575Z,86.24
2022-12-08T11:24:40.997Z,86.31
2022-12-08T11:30:31.015Z,86.38
2022-12-08T11:35:39.174Z,86.05
2022-12-08T11:40:44.021Z,86.03
2022-12-08T11:46:14.753Z,86.21
2022-12-08T11:51:24.057Z,85.63
2022-12-08T11:56:38.975Z,85.56
2022-12-08T12:01:45.551Z,85.66
2022-12-08T12:07:26.518Z,86.02
2022-12-08T12:13:02.414Z,85.84
2022-12-08T12:18:33.789Z,86.07
2022-12-08T12:23:59.210Z,86.46
2022-12-08T12:29:33.039Z,86.12
2022-12-08T12:34:56.028Z,86.23
2022-12-08T12:40:01.393Z,86.28
2022-12-08T12:45:22.185Z,86.32
2022-12-08T12:50:34.234Z,86.31
2022-12-08T12:55:46.273Z,86.42
2022-12-08T13:00:49.296Z,86.63
2022-12-08T13:05:52.625Z,86.71
2022-12-08T13:11:14.922Z,86.55
2022-12-08T13:16:20.512Z,86.60
2022-12-08T13:21:27.609Z,86.73
2022-12-08T13:26:32.614Z,86.75
2022-12-08T13:31:51.476Z,86.89
2022-12-08T13:37:02.419Z,86.92
2022-12-08T13:42:31.207Z,86.95
2022-12-08T13:48:13.566Z,87.00
2022-12-08T13:58:44.862Z,87.17
2022-12-08T14:04:30.992Z,87.26
2022-12-08T14:09:24.357Z,87.38
2022-12-08T14:21:05.056Z,87.45
2022-12-08T14:26:05.043Z,87.80
2022-12-08T14:31:08.117Z,87.72
2022-12-08T14:36:14.659Z,87.69
2022-12-08T14:41:17.426Z,87.78
2022-12-08T14:46:22.739Z,87.71
2022-12-08T14:51:30.742Z,87.93
2022-12-08T14:56:41.287Z,88.31
2022-12-08T15:01:44.338Z,88.33
2022-12-08T15:06:53.668Z,88.23
2022-12-08T15:12:15.071Z,88.34
2022-12-08T15:17:33.448Z,88.23
2022-12-08T15:22:37.105Z,88.54
2022-12-08T15:27:49.868Z,88.60
2022-12-08T15:32:56.388Z,88.39
2022-12-08T15:37:59.287Z,88.62
2022-12-08T15:43:03.525Z,88.56
2022-12-08T15:48:06.662Z,88.68
2022-12-08T15:53:10.762Z,88.62
2022-12-08T16:09:21.156Z,89.15
2022-12-08T16:15:23.395Z,88.83
2022-12-08T16:19:47.206Z,89.38
2022-12-08T16:24:50.157Z,89.21
2022-12-08T16:29:53.012Z,89.06
2022-12-08T16:34:55.885Z,89.27
2022-12-08T16:40:00.361Z,89.32
2022-12-08T16:45:21.551Z,89.42
2022-12-08T16:50:29.655Z,89.47
2022-12-08T16:55:32.762Z,89.61
2022-12-08T17:00:37.057Z,89.58
2022-12-08T17:05:41.457Z,89.51
2022-12-08T17:10:44.288Z,89.38
2022-12-08T17:15:48.006Z,89.42
2022-12-08T17:20:50.909Z,89.65
2022-12-08T17:25:59.407Z,89.68
2022-12-08T17:31:30.303Z,89.70
2022-12-08T17:36:33.818Z,89.55
2022-12-08T17:41:37.350Z,89.67
2022-12-08T17:46:43.360Z,89.70
2022-12-08T17:51:49.648Z,89.41
2022-12-08T17:56:52.764Z,89.64
2022-12-08T18:01:58.201Z,89.52
2022-12-08T18:07:03.469Z,89.44
2022-12-08T18:12:06.603Z,89.13
2022-12-08T18:17:09.922Z,89.25
2022-12-08T18:22:12.994Z,89.19
2022-12-08T18:27:16.034Z,89.28
2022-12-08T18:32:24.217Z,89.04
2022-12-08T18:37:27.480Z,89.04
2022-12-08T18:42:30.477Z,89.03
2022-12-08T18:47:39.949Z,89.18
2022-12-08T18:52:42.772Z,89.02
2022-12-08T18:57:45.709Z,89.02
2022-12-08T19:02:48.531Z,89.19
2022-12-08T19:07:52.250Z,88.80
2022-12-08T19:12:55.026Z,88.85
2022-12-08T19:17:58.361Z,88.87
2022-12-08T19:23:01.624Z,88.99
2022-12-08T19:28:05.769Z,89.05
2022-12-08T19:33:09.717Z,89.15
2022-12-08T19:38:13.323Z,88.98
2022-12-08T19:43:37.009Z,88.94
2022-12-08T19:48:40.269Z,89.10
2022-12-08T19:53:47.546Z,88.89
2022-12-08T19:58:50.959Z,88.90
2022-12-08T20:03:53.885Z,88.95
2022-12-08T20:08:56.677Z,89.09
2022-12-08T20:13:59.521Z,89.06
2022-12-08T20:19:02.620Z,89.15
2022-12-08T20:24:05.985Z,88.91
2022-12-08T20:29:09.097Z,89.19
2022-12-08T20:34:15.598Z,89.05
2022-12-08T20:39:18.733Z,89.08
2022-12-08T20:44:21.717Z,89.12
2022-12-08T20:49:27.257Z,89.31
2022-12-08T20:54:33.121Z,89.06
2022-12-08T20:59:37.839Z,89.40
2022-12-08T21:04:40.839Z,89.42
2022-12-08T21:09:46.870Z,89.24
2022-12-08T21:14:49.961Z,89.17
2022-12-08T21:19:52.843Z,89.22
2022-12-08T21:24:56.042Z,89.10
2022-12-08T21:29:58.851Z,89.04
2022-12-08T21:35:01.667Z,89.24
2022-12-08T21:40:07.381Z,89.31
2022-12-08T21:45:16.808Z,89.40
2022-12-08T21:50:19.932Z,89.35
2022-12-08T21:55:23.874Z,89.55
2022-12-08T22:00:27.010Z,89.82
2022-12-08T22:05:29.954Z,89.78
2022-12-08T22:10:32.876Z,89.64
2022-12-08T22:15:36.975Z,89.79
2022-12-08T22:20:44.122Z,89.86
2022-12-08T22:26:00.486Z,89.94
2022-12-08T22:31:14.767Z,90.20
2022-12-08T22:36:23.365Z,90.20
2022-12-08T22:41:26.387Z,90.13
2022-12-08T22:46:31.651Z,90.17
2022-12-08T22:51:38.167Z,90.14
2022-12-08T22:56:42.386Z,90.02
2022-12-08T23:01:45.905Z,90.29
2022-12-08T23:06:49.508Z,90.46
2022-12-08T23:11:52.791Z,90.24
2022-12-08T23:16:56.099Z,90.34
2022-12-08T23:21:58.942Z,90.51
2022-12-08T23:27:01.734Z,90.70
2022-12-08T23:32:06.345Z,90.49
2022-12-08T23:37:09.288Z,90.71
2022-12-08T23:42:12.133Z,90.91
2022-12-08T23:47:16.283Z,90.97
2022-12-08T23:52:19.343Z,91.06
2022-12-08T23:57:22.179Z,90.95
